sensor_id;sensor_type;location;lat;lon;timestamp;pressure;altitude;pressure_sealevel;temperature;humidity
62592;BME280;48659;41.622;2.276;2023-04-21T00:00:32;99107.31;;;12.52;61.54
62592;BME280;48659;41.622;2.276;2023-04-21T00:02:59;99106.13;;;9.99;66.70
62592;BME280;48659;41.622;2.276;2023-04-21T00:05:26;99102.83;;;11.77;63.69
62592;BME280;48659;41.622;2.276;2023-04-21T00:07:54;99097.26;;;11.98;61.26
62592;BME280;48659;41.622;2.276;2023-04-21T00:10:21;99093.62;;;11.89;60.93
62592;BME280;48659;41.622;2.276;2023-04-21T00:12:48;99093.42;;;11.22;63.52
62592;BME280;48659;41.622;2.276;2023-04-21T00:15:16;99088.79;;;12.60;59.22
62592;BME280;48659;41.622;2.276;2023-04-21T00:17:43;99092.06;;;13.50;57.67
62592;BME280;48659;41.622;2.276;2023-04-21T00:20:11;99091.88;;;12.72;60.49
62592;BME280;48659;41.622;2.276;2023-04-21T00:22:39;99089.82;;;12.33;61.61
62592;BME280;48659;41.622;2.276;2023-04-21T00:25:06;99083.95;;;14.08;57.25
62592;BME280;48659;41.622;2.276;2023-04-21T00:27:34;99081.37;;;13.48;57.40
62592;BME280;48659;41.622;2.276;2023-04-21T00:30:02;99082.65;;;13.39;57.80
62592;BME280;48659;41.622;2.276;2023-04-21T00:32:29;99083.06;;;13.34;57.05
62592;BME280;48659;41.622;2.276;2023-04-21T00:34:57;99080.67;;;14.65;55.40
62592;BME280;48659;41.622;2.276;2023-04-21T00:37:24;99083.32;;;14.30;55.52
62592;BME280;48659;41.622;2.276;2023-04-21T00:39:53;99085.14;;;14.04;56.70
62592;BME280;48659;41.622;2.276;2023-04-21T00:42:28;99087.28;;;13.93;56.99
62592;BME280;48659;41.622;2.276;2023-04-21T00:44:55;99086.14;;;13.79;56.58
62592;BME280;48659;41.622;2.276;2023-04-21T00:47:22;99082.71;;;12.10;62.62
62592;BME280;48659;41.622;2.276;2023-04-21T00:49:50;99080.75;;;12.94;60.86
62592;BME280;48659;41.622;2.276;2023-04-21T00:52:17;99080.81;;;13.39;59.61
62592;BME280;48659;41.622;2.276;2023-04-21T00:54:45;99079.43;;;14.16;56.92
62592;BME280;48659;41.622;2.276;2023-04-21T00:57:12;99075.97;;;14.32;55.94
62592;BME280;48659;41.622;2.276;2023-04-21T00:59:51;99067.21;;;14.64;54.73
62592;BME280;48659;41.622;2.276;2023-04-21T01:02:28;99065.89;;;14.45;53.04
62592;BME280;48659;41.622;2.276;2023-04-21T01:04:55;99063.18;;;15.22;52.06
62592;BME280;48659;41.622;2.276;2023-04-21T01:07:28;99059.89;;;15.12;51.10
62592;BME280;48659;41.622;2.276;2023-04-21T01:09:56;99055.50;;;15.20;50.54
62592;BME280;48659;41.622;2.276;2023-04-21T01:12:23;99049.55;;;15.58;49.84
62592;BME280;48659;41.622;2.276;2023-04-21T01:14:50;99050.58;;;13.69;53.32
62592;BME280;48659;41.622;2.276;2023-04-21T01:17:17;99051.31;;;14.96;52.05
62592;BME280;48659;41.622;2.276;2023-04-21T01:19:44;99058.06;;;13.63;54.98
62592;BME280;48659;41.622;2.276;2023-04-21T01:22:12;99050.96;;;14.51;52.81
62592;BME280;48659;41.622;2.276;2023-04-21T01:24:41;99056.45;;;12.62;59.13
62592;BME280;48659;41.622;2.276;2023-04-21T01:27:09;99054.94;;;14.37;55.43
62592;BME280;48659;41.622;2.276;2023-04-21T01:29:38;99053.28;;;11.98;59.14
62592;BME280;48659;41.622;2.276;2023-04-21T01:32:07;99052.56;;;12.46;59.42
62592;BME280;48659;41.622;2.276;2023-04-21T01:34:35;99051.58;;;12.55;58.20
62592;BME280;48659;41.622;2.276;2023-04-21T01:37:02;99052.56;;;13.61;56.96
62592;BME280;48659;41.622;2.276;2023-04-21T01:39:30;99052.01;;;12.77;57.21
62592;BME280;48659;41.622;2.276;2023-04-21T01:41:57;99055.29;;;14.28;53.89
62592;BME280;48659;41.622;2.276;2023-04-21T01:44:25;99050.28;;;14.43;52.72
62592;BME280;48659;41.622;2.276;2023-04-21T01:46:53;99060.87;;;13.59;53.98
62592;BME280;48659;41.622;2.276;2023-04-21T01:49:28;99056.65;;;14.28;53.00
62592;BME280;48659;41.622;2.276;2023-04-21T01:51:55;99060.38;;;12.46;57.26
62592;BME280;48659;41.622;2.276;2023-04-21T01:54:23;99056.79;;;11.94;59.40
62592;BME280;48659;41.622;2.276;2023-04-21T01:56:51;99051.08;;;12.84;56.93
62592;BME280;48659;41.622;2.276;2023-04-21T01:59:19;99051.34;;;13.38;55.39
62592;BME280;48659;41.622;2.276;2023-04-21T02:01:47;99046.64;;;12.74;56.07
62592;BME280;48659;41.622;2.276;2023-04-21T02:04:15;99047.41;;;14.41;52.86
62592;BME280;48659;41.622;2.276;2023-04-21T02:06:42;99050.46;;;10.98;60.66
62592;BME280;48659;41.622;2.276;2023-04-21T02:09:09;99046.90;;;12.23;57.38
62592;BME280;48659;41.622;2.276;2023-04-21T02:11:37;99043.34;;;11.60;60.55
62592;BME280;48659;41.622;2.276;2023-04-21T02:14:04;99037.75;;;12.48;59.00
62592;BME280;48659;41.622;2.276;2023-04-21T02:16:32;99044.42;;;11.04;62.79
62592;BME280;48659;41.622;2.276;2023-04-21T02:19:00;99042.11;;;11.68;61.13
62592;BME280;48659;41.622;2.276;2023-04-21T02:21:27;99044.57;;;11.09;60.69
62592;BME280;48659;41.622;2.276;2023-04-21T02:23:55;99043.49;;;10.19;65.34
62592;BME280;48659;41.622;2.276;2023-04-21T02:26:22;99040.58;;;10.87;63.52
62592;BME280;48659;41.622;2.276;2023-04-21T02:28:50;99046.66;;;9.87;65.52
62592;BME280;48659;41.622;2.276;2023-04-21T02:31:16;99040.75;;;10.47;65.14
62592;BME280;48659;41.622;2.276;2023-04-21T02:33:44;99047.24;;;9.71;68.68
62592;BME280;48659;41.622;2.276;2023-04-21T02:36:12;99036.35;;;10.91;63.08
62592;BME280;48659;41.622;2.276;2023-04-21T02:38:39;99030.71;;;12.04;58.96
62592;BME280;48659;41.622;2.276;2023-04-21T02:41:06;99031.58;;;12.78;56.26
62592;BME280;48659;41.622;2.276;2023-04-21T02:43:33;99030.62;;;11.70;58.48
62592;BME280;48659;41.622;2.276;2023-04-21T02:46:05;99027.32;;;13.00;55.77
62592;BME280;48659;41.622;2.276;2023-04-21T02:48:32;99027.17;;;13.83;54.38
62592;BME280;48659;41.622;2.276;2023-04-21T02:51:00;99023.81;;;13.57;53.80
62592;BME280;48659;41.622;2.276;2023-04-21T02:53:27;99022.21;;;13.40;55.10
62592;BME280;48659;41.622;2.276;2023-04-21T02:55:55;99023.70;;;12.08;56.87
62592;BME280;48659;41.622;2.276;2023-04-21T02:58:22;99025.27;;;13.98;53.17
62592;BME280;48659;41.622;2.276;2023-04-21T03:00:50;99020.89;;;14.69;51.40
62592;BME280;48659;41.622;2.276;2023-04-21T03:03:17;99029.88;;;12.03;57.81
62592;BME280;48659;41.622;2.276;2023-04-21T03:05:45;99029.48;;;11.90;57.70
62592;BME280;48659;41.622;2.276;2023-04-21T03:08:13;99027.04;;;12.06;58.14
62592;BME280;48659;41.622;2.276;2023-04-21T03:10:41;99026.13;;;12.01;57.43
62592;BME280;48659;41.622;2.276;2023-04-21T03:13:08;99036.99;;;11.28;60.48
62592;BME280;48659;41.622;2.276;2023-04-21T03:15:35;99032.78;;;12.44;58.37
62592;BME280;48659;41.622;2.276;2023-04-21T03:18:03;99034.48;;;12.40;56.85
62592;BME280;48659;41.622;2.276;2023-04-21T03:20:30;99040.09;;;12.61;56.73
62592;BME280;48659;41.622;2.276;2023-04-21T03:22:57;99039.74;;;13.59;54.08
62592;BME280;48659;41.622;2.276;2023-04-21T03:25:25;99039.46;;;13.37;52.87
62592;BME280;48659;41.622;2.276;2023-04-21T03:27:52;99035.18;;;12.16;55.42
62592;BME280;48659;41.622;2.276;2023-04-21T03:30:20;99035.86;;;11.17;59.30
62592;BME280;48659;41.622;2.276;2023-04-21T03:32:48;99031.90;;;9.72;61.58
62592;BME280;48659;41.622;2.276;2023-04-21T03:35:15;99029.39;;;10.72;59.85
62592;BME280;48659;41.622;2.276;2023-04-21T03:37:42;99023.04;;;9.75;62.69
62592;BME280;48659;41.622;2.276;2023-04-21T03:40:10;99031.48;;;9.96;63.43
62592;BME280;48659;41.622;2.276;2023-04-21T03:42:37;99031.28;;;11.50;59.15
62592;BME280;48659;41.622;2.276;2023-04-21T03:45:06;99030.39;;;10.00;62.53
62592;BME280;48659;41.622;2.276;2023-04-21T03:47:34;99028.70;;;10.12;62.72
62592;BME280;48659;41.622;2.276;2023-04-21T03:50:03;99031.05;;;10.12;64.31
62592;BME280;48659;41.622;2.276;2023-04-21T03:52:31;99024.51;;;11.24;60.13
62592;BME280;48659;41.622;2.276;2023-04-21T03:54:58;99018.43;;;12.22;56.58
62592;BME280;48659;41.622;2.276;2023-04-21T03:57:26;99020.08;;;12.59;55.20
62592;BME280;48659;41.622;2.276;2023-04-21T03:59:53;99019.99;;;12.88;54.43
62592;BME280;48659;41.622;2.276;2023-04-21T04:02:21;99020.90;;;13.06;53.55
62592;BME280;48659;41.622;2.276;2023-04-21T04:04:48;99017.19;;;13.37;52.15
62592;BME280;48659;41.622;2.276;2023-04-21T04:07:16;99017.60;;;13.39;52.42
62592;BME280;48659;41.622;2.276;2023-04-21T04:09:43;99017.36;;;12.82;52.94
62592;BME280;48659;41.622;2.276;2023-04-21T04:12:10;99017.40;;;12.52;53.86
62592;BME280;48659;41.622;2.276;2023-04-21T04:14:38;99018.40;;;12.39;54.34
62592;BME280;48659;41.622;2.276;2023-04-21T04:17:05;99021.14;;;10.27;59.24
62592;BME280;48659;41.622;2.276;2023-04-21T04:19:33;99011.87;;;12.39;55.05
62592;BME280;48659;41.622;2.276;2023-04-21T04:22:01;99012.67;;;12.45;54.60
62592;BME280;48659;41.622;2.276;2023-04-21T04:24:28;99015.97;;;12.60;54.03
62592;BME280;48659;41.622;2.276;2023-04-21T04:26:58;99020.29;;;10.10;58.41
62592;BME280;48659;41.622;2.276;2023-04-21T04:29:26;99014.27;;;12.09;55.32
62592;BME280;48659;41.622;2.276;2023-04-21T04:31:53;99020.59;;;11.05;57.17
62592;BME280;48659;41.622;2.276;2023-04-21T04:34:20;99031.99;;;8.83;63.78
62592;BME280;48659;41.622;2.276;2023-04-21T04:36:48;99024.52;;;10.83;59.90
62592;BME280;48659;41.622;2.276;2023-04-21T04:39:17;99028.11;;;10.34;60.82
62592;BME280;48659;41.622;2.276;2023-04-21T04:41:44;99033.92;;;9.75;62.04
62592;BME280;48659;41.622;2.276;2023-04-21T04:44:10;99035.67;;;9.82;62.96
62592;BME280;48659;41.622;2.276;2023-04-21T04:46:38;99029.53;;;10.95;60.51
62592;BME280;48659;41.622;2.276;2023-04-21T04:49:06;99033.13;;;10.27;61.31
62592;BME280;48659;41.622;2.276;2023-04-21T04:51:33;99031.61;;;11.34;60.47
62592;BME280;48659;41.622;2.276;2023-04-21T04:54:00;99030.65;;;10.93;58.65
62592;BME280;48659;41.622;2.276;2023-04-21T04:56:29;99032.02;;;10.75;61.90
62592;BME280;48659;41.622;2.276;2023-04-21T04:58:57;99032.28;;;12.06;56.46
62592;BME280;48659;41.622;2.276;2023-04-21T05:01:24;99035.03;;;12.46;54.16
62592;BME280;48659;41.622;2.276;2023-04-21T05:03:51;99038.22;;;12.87;52.51
62592;BME280;48659;41.622;2.276;2023-04-21T05:06:19;99039.74;;;13.47;51.81
62592;BME280;48659;41.622;2.276;2023-04-21T05:08:47;99038.00;;;12.99;52.16
62592;BME280;48659;41.622;2.276;2023-04-21T05:11:14;99039.56;;;13.28;51.80
62592;BME280;48659;41.622;2.276;2023-04-21T05:13:41;99044.01;;;13.19;51.52
62592;BME280;48659;41.622;2.276;2023-04-21T05:16:08;99038.84;;;13.12;51.81
62592;BME280;48659;41.622;2.276;2023-04-21T05:18:35;99045.56;;;12.81;51.97
62592;BME280;48659;41.622;2.276;2023-04-21T05:21:03;99050.19;;;13.21;51.38
62592;BME280;48659;41.622;2.276;2023-04-21T05:23:30;99049.07;;;13.21;51.67
62592;BME280;48659;41.622;2.276;2023-04-21T05:25:57;99051.82;;;13.15;51.56
62592;BME280;48659;41.622;2.276;2023-04-21T05:28:25;99053.44;;;13.22;51.91
62592;BME280;48659;41.622;2.276;2023-04-21T05:30:52;99054.53;;;12.52;53.13
62592;BME280;48659;41.622;2.276;2023-04-21T05:33:20;99049.81;;;11.65;55.23
62592;BME280;48659;41.622;2.276;2023-04-21T05:35:47;99057.33;;;10.67;57.94
62592;BME280;48659;41.622;2.276;2023-04-21T05:38:15;99055.94;;;12.38;55.06
62592;BME280;48659;41.622;2.276;2023-04-21T05:40:42;99057.90;;;11.63;55.00
62592;BME280;48659;41.622;2.276;2023-04-21T05:43:09;99060.13;;;10.91;57.75
62592;BME280;48659;41.622;2.276;2023-04-21T05:45:38;99065.96;;;9.85;59.21
62592;BME280;48659;41.622;2.276;2023-04-21T05:48:06;99068.43;;;11.65;57.05
62592;BME280;48659;41.622;2.276;2023-04-21T05:50:33;99070.83;;;10.48;59.91
62592;BME280;48659;41.622;2.276;2023-04-21T05:53:01;99075.46;;;11.01;57.78
62592;BME280;48659;41.622;2.276;2023-04-21T05:55:29;99076.74;;;11.13;57.83
62592;BME280;48659;41.622;2.276;2023-04-21T05:57:56;99068.65;;;12.48;54.82
62592;BME280;48659;41.622;2.276;2023-04-21T06:00:24;99069.92;;;12.65;53.09
62592;BME280;48659;41.622;2.276;2023-04-21T06:02:52;99075.87;;;11.03;55.94
62592;BME280;48659;41.622;2.276;2023-04-21T06:05:20;99075.39;;;11.52;56.68
62592;BME280;48659;41.622;2.276;2023-04-21T06:07:48;99074.28;;;12.53;54.90
62592;BME280;48659;41.622;2.276;2023-04-21T06:10:16;99071.58;;;11.73;55.99
62592;BME280;48659;41.622;2.276;2023-04-21T06:12:44;99075.27;;;11.47;57.04
62592;BME280;48659;41.622;2.276;2023-04-21T06:15:12;99072.29;;;12.67;54.13
62592;BME280;48659;41.622;2.276;2023-04-21T06:17:39;99073.59;;;11.43;56.20
62592;BME280;48659;41.622;2.276;2023-04-21T06:20:08;99070.30;;;13.18;54.00
62592;BME280;48659;41.622;2.276;2023-04-21T06:22:36;99075.16;;;13.57;51.20
62592;BME280;48659;41.622;2.276;2023-04-21T06:25:04;99079.56;;;13.89;50.60
62592;BME280;48659;41.622;2.276;2023-04-21T06:27:31;99074.55;;;14.66;49.11
62592;BME280;48659;41.622;2.276;2023-04-21T06:29:58;99080.20;;;13.37;50.76
62592;BME280;48659;41.622;2.276;2023-04-21T06:32:26;99083.07;;;13.84;51.29
62592;BME280;48659;41.622;2.276;2023-04-21T06:34:53;99070.65;;;15.02;48.77
62592;BME280;48659;41.622;2.276;2023-04-21T06:37:21;99075.82;;;15.50;47.87
62592;BME280;48659;41.622;2.276;2023-04-21T06:39:48;99076.29;;;14.62;48.72
62592;BME280;48659;41.622;2.276;2023-04-21T06:42:15;99076.08;;;14.70;48.79
62592;BME280;48659;41.622;2.276;2023-04-21T06:44:43;99074.67;;;15.71;46.29
62592;BME280;48659;41.622;2.276;2023-04-21T06:47:11;99074.59;;;15.57;46.21
62592;BME280;48659;41.622;2.276;2023-04-21T06:49:38;99076.84;;;14.47;48.80
62592;BME280;48659;41.622;2.276;2023-04-21T06:52:05;99077.62;;;15.32;47.72
62592;BME280;48659;41.622;2.276;2023-04-21T06:54:33;99072.78;;;15.89;45.68
62592;BME280;48659;41.622;2.276;2023-04-21T06:57:00;99075.47;;;15.66;46.70
62592;BME280;48659;41.622;2.276;2023-04-21T06:59:28;99073.23;;;16.18;45.41
62592;BME280;48659;41.622;2.276;2023-04-21T07:01:56;99075.26;;;15.93;46.45
62592;BME280;48659;41.622;2.276;2023-04-21T07:04:23;99073.35;;;15.44;47.35
62592;BME280;48659;41.622;2.276;2023-04-21T07:06:51;99075.00;;;15.44;47.81
62592;BME280;48659;41.622;2.276;2023-04-21T07:09:18;99075.06;;;15.07;47.97
62592;BME280;48659;41.622;2.276;2023-04-21T07:11:45;99067.06;;;16.10;45.63
62592;BME280;48659;41.622;2.276;2023-04-21T07:14:13;99067.76;;;16.81;45.03
62592;BME280;48659;41.622;2.276;2023-04-21T07:16:40;99068.28;;;17.44;43.80
62592;BME280;48659;41.622;2.276;2023-04-21T07:19:08;99072.40;;;17.73;43.91
62592;BME280;48659;41.622;2.276;2023-04-21T07:21:35;99074.86;;;17.95;43.25
62592;BME280;48659;41.622;2.276;2023-04-21T07:24:03;99072.67;;;16.52;45.48
62592;BME280;48659;41.622;2.276;2023-04-21T07:26:30;99072.99;;;17.31;45.49
62592;BME280;48659;41.622;2.276;2023-04-21T07:28:58;99065.34;;;17.42;46.27
62592;BME280;48659;41.622;2.276;2023-04-21T07:31:28;99068.81;;;17.38;46.14
62592;BME280;48659;41.622;2.276;2023-04-21T07:33:55;99071.58;;;17.54;46.14
62592;BME280;48659;41.622;2.276;2023-04-21T07:36:27;99063.17;;;17.74;45.69
62592;BME280;48659;41.622;2.276;2023-04-21T07:38:54;99060.24;;;18.39;44.48
62592;BME280;48659;41.622;2.276;2023-04-21T07:41:21;99062.74;;;19.02;44.08
62592;BME280;48659;41.622;2.276;2023-04-21T07:43:49;99064.44;;;18.11;45.71
62592;BME280;48659;41.622;2.276;2023-04-21T07:46:16;99055.04;;;18.80;45.00
62592;BME280;48659;41.622;2.276;2023-04-21T07:48:43;99060.18;;;19.22;44.72
62592;BME280;48659;41.622;2.276;2023-04-21T07:51:10;99064.27;;;16.52;48.65
62592;BME280;48659;41.622;2.276;2023-04-21T07:53:38;99058.51;;;18.80;45.16
62592;BME280;48659;41.622;2.276;2023-04-21T07:56:05;99062.81;;;18.98;43.96
62592;BME280;48659;41.622;2.276;2023-04-21T07:58:33;99062.89;;;19.02;43.54
62592;BME280;48659;41.622;2.276;2023-04-21T08:01:00;99062.06;;;19.09;44.10
62592;BME280;48659;41.622;2.276;2023-04-21T08:03:28;99070.12;;;17.27;46.66
62592;BME280;48659;41.622;2.276;2023-04-21T08:05:55;99067.22;;;19.08;43.77
62592;BME280;48659;41.622;2.276;2023-04-21T08:08:23;99070.23;;;19.63;43.09
62592;BME280;48659;41.622;2.276;2023-04-21T08:10:50;99075.50;;;19.23;43.14
62592;BME280;48659;41.622;2.276;2023-04-21T08:13:33;99073.85;;;18.75;43.79
62592;BME280;48659;41.622;2.276;2023-04-21T08:16:00;99079.41;;;18.45;44.09
62592;BME280;48659;41.622;2.276;2023-04-21T08:18:27;99082.85;;;18.06;45.29
62592;BME280;48659;41.622;2.276;2023-04-21T08:20:54;99082.26;;;17.80;45.48
62592;BME280;48659;41.622;2.276;2023-04-21T08:23:21;99079.25;;;19.04;43.44
62592;BME280;48659;41.622;2.276;2023-04-21T08:25:48;99081.32;;;19.35;41.98
62592;BME280;48659;41.622;2.276;2023-04-21T08:28:16;99088.18;;;18.74;42.84
62592;BME280;48659;41.622;2.276;2023-04-21T08:30:43;99088.03;;;19.26;42.62
62592;BME280;48659;41.622;2.276;2023-04-21T08:33:10;99098.43;;;18.24;44.79
62592;BME280;48659;41.622;2.276;2023-04-21T08:35:38;99094.91;;;19.29;42.80
62592;BME280;48659;41.622;2.276;2023-04-21T08:38:06;99098.95;;;18.13;44.25
62592;BME280;48659;41.622;2.276;2023-04-21T08:40:36;99101.78;;;19.13;42.42
62592;BME280;48659;41.622;2.276;2023-04-21T08:43:04;99102.99;;;19.27;42.65
62592;BME280;48659;41.622;2.276;2023-04-21T08:45:32;99106.74;;;18.68;42.52
62592;BME280;48659;41.622;2.276;2023-04-21T08:48:01;99116.45;;;18.11;43.95
62592;BME280;48659;41.622;2.276;2023-04-21T08:50:31;99120.63;;;17.53;45.37
62592;BME280;48659;41.622;2.276;2023-04-21T08:52:58;99120.49;;;18.43;44.24
62592;BME280;48659;41.622;2.276;2023-04-21T08:55:28;99116.06;;;19.61;42.23
62592;BME280;48659;41.622;2.276;2023-04-21T08:57:56;99120.52;;;18.91;43.07
62592;BME280;48659;41.622;2.276;2023-04-21T09:00:29;99122.86;;;19.10;43.17
62592;BME280;48659;41.622;2.276;2023-04-21T09:02:57;99125.93;;;18.79;43.17
62592;BME280;48659;41.622;2.276;2023-04-21T09:05:29;99124.38;;;19.00;42.62
62592;BME280;48659;41.622;2.276;2023-04-21T09:08:09;99125.48;;;19.38;42.32
62592;BME280;48659;41.622;2.276;2023-04-21T09:10:46;99127.34;;;19.48;42.84
62592;BME280;48659;41.622;2.276;2023-04-21T09:13:15;99127.47;;;20.22;41.32
62592;BME280;48659;41.622;2.276;2023-04-21T09:15:45;99133.35;;;18.66;43.87
62592;BME280;48659;41.622;2.276;2023-04-21T09:18:15;99124.46;;;19.84;42.18
62592;BME280;48659;41.622;2.276;2023-04-21T09:20:43;99125.86;;;19.30;42.77
62592;BME280;48659;41.622;2.276;2023-04-21T09:23:11;99124.68;;;20.34;41.41
62592;BME280;48659;41.622;2.276;2023-04-21T09:25:40;99122.97;;;19.79;42.46
62592;BME280;48659;41.622;2.276;2023-04-21T09:28:09;99131.08;;;18.41;45.22
62592;BME280;48659;41.622;2.276;2023-04-21T09:30:37;99136.36;;;19.18;43.66
62592;BME280;48659;41.622;2.276;2023-04-21T09:33:05;99131.12;;;19.02;43.29
62592;BME280;48659;41.622;2.276;2023-04-21T09:35:34;99134.29;;;18.56;44.23
62592;BME280;48659;41.622;2.276;2023-04-21T09:38:03;99133.49;;;18.79;44.19
62592;BME280;48659;41.622;2.276;2023-04-21T09:40:31;99130.85;;;19.57;42.83
62592;BME280;48659;41.622;2.276;2023-04-21T09:42:59;99130.18;;;20.11;41.62
62592;BME280;48659;41.622;2.276;2023-04-21T09:45:28;99132.51;;;20.24;41.03
62592;BME280;48659;41.622;2.276;2023-04-21T09:47:57;99130.22;;;20.59;41.03
62592;BME280;48659;41.622;2.276;2023-04-21T09:50:25;99125.91;;;20.87;40.13
62592;BME280;48659;41.622;2.276;2023-04-21T09:52:55;99122.87;;;21.25;39.34
62592;BME280;48659;41.622;2.276;2023-04-21T09:55:25;99119.68;;;20.33;40.49
62592;BME280;48659;41.622;2.276;2023-04-21T09:57:57;99123.15;;;21.13;39.15
62592;BME280;48659;41.622;2.276;2023-04-21T10:00:26;99118.31;;;20.84;39.39
62592;BME280;48659;41.622;2.276;2023-04-21T10:02:57;99134.83;;;17.50;45.90
62592;BME280;48659;41.622;2.276;2023-04-21T10:05:25;99127.62;;;19.75;41.76
62592;BME280;48659;41.622;2.276;2023-04-21T10:07:54;99130.50;;;20.67;40.63
62592;BME280;48659;41.622;2.276;2023-04-21T10:10:29;99133.77;;;20.33;40.79
62592;BME280;48659;41.622;2.276;2023-04-21T10:12:57;99134.31;;;19.65;41.56
62592;BME280;48659;41.622;2.276;2023-04-21T10:15:29;99140.38;;;19.15;42.84
62592;BME280;48659;41.622;2.276;2023-04-21T10:18:12;99138.17;;;20.45;41.05
62592;BME280;48659;41.622;2.276;2023-04-21T10:21:02;99137.04;;;20.10;41.29
62592;BME280;48659;41.622;2.276;2023-04-21T10:23:33;99132.60;;;20.17;41.45
62592;BME280;48659;41.622;2.276;2023-04-21T10:26:05;99133.44;;;20.85;39.90
62592;BME280;48659;41.622;2.276;2023-04-21T10:28:41;99137.72;;;20.21;40.68
62592;BME280;48659;41.622;2.276;2023-04-21T10:31:51;99133.17;;;20.97;39.32
62592;BME280;48659;41.622;2.276;2023-04-21T10:34:27;99130.24;;;20.96;40.85
62592;BME280;48659;41.622;2.276;2023-04-21T10:37:13;99126.39;;;20.45;39.61
62592;BME280;48659;41.622;2.276;2023-04-21T10:39:54;99127.58;;;22.16;37.76
62592;BME280;48659;41.622;2.276;2023-04-21T10:42:32;99126.82;;;22.04;37.07
62592;BME280;48659;41.622;2.276;2023-04-21T10:45:05;99124.76;;;21.51;38.60
62592;BME280;48659;41.622;2.276;2023-04-21T10:47:37;99123.20;;;21.46;38.44
62592;BME280;48659;41.622;2.276;2023-04-21T10:50:15;99122.45;;;22.19;37.50
62592;BME280;48659;41.622;2.276;2023-04-21T10:52:44;99122.75;;;19.47;41.83
62592;BME280;48659;41.622;2.276;2023-04-21T10:55:12;99116.89;;;19.56;41.30
62592;BME280;48659;41.622;2.276;2023-04-21T10:57:42;99121.40;;;20.89;40.35
62592;BME280;48659;41.622;2.276;2023-04-21T11:00:14;99117.92;;;20.72;40.52
62592;BME280;48659;41.622;2.276;2023-04-21T11:02:41;99120.74;;;20.55;40.42
62592;BME280;48659;41.622;2.276;2023-04-21T11:05:09;99113.95;;;20.84;39.76
62592;BME280;48659;41.622;2.276;2023-04-21T11:07:36;99114.91;;;21.66;38.56
62592;BME280;48659;41.622;2.276;2023-04-21T11:10:05;99116.40;;;21.36;39.50
62592;BME280;48659;41.622;2.276;2023-04-21T11:12:36;99111.30;;;20.81;39.94
62592;BME280;48659;41.622;2.276;2023-04-21T11:15:06;99111.51;;;22.26;38.74
62592;BME280;48659;41.622;2.276;2023-04-21T11:17:35;99117.04;;;20.85;40.23
62592;BME280;48659;41.622;2.276;2023-04-21T11:20:03;99114.36;;;21.65;38.19
62592;BME280;48659;41.622;2.276;2023-04-21T11:22:31;99110.27;;;21.50;38.08
62592;BME280;48659;41.622;2.276;2023-04-21T11:24:59;99111.27;;;21.07;38.46
62592;BME280;48659;41.622;2.276;2023-04-21T11:27:28;99109.27;;;21.12;39.15
62592;BME280;48659;41.622;2.276;2023-04-21T11:29:57;99110.24;;;21.31;37.82
62592;BME280;48659;41.622;2.276;2023-04-21T11:32:24;99103.34;;;21.07;38.45
62592;BME280;48659;41.622;2.276;2023-04-21T11:34:51;99103.99;;;21.88;37.27
62592;BME280;48659;41.622;2.276;2023-04-21T11:37:27;99108.19;;;21.73;37.49
62592;BME280;48659;41.622;2.276;2023-04-21T11:39:57;99106.07;;;20.51;39.65
62592;BME280;48659;41.622;2.276;2023-04-21T11:42:28;99110.45;;;19.50;41.78
62592;BME280;48659;41.622;2.276;2023-04-21T11:44:56;99109.33;;;20.72;39.13
62592;BME280;48659;41.622;2.276;2023-04-21T11:47:28;99106.05;;;21.17;40.46
62592;BME280;48659;41.622;2.276;2023-04-21T11:49:57;99109.21;;;21.78;39.36
62592;BME280;48659;41.622;2.276;2023-04-21T11:52:26;99111.01;;;21.40;38.64
62592;BME280;48659;41.622;2.276;2023-04-21T11:54:56;99113.69;;;19.67;41.44
62592;BME280;48659;41.622;2.276;2023-04-21T11:57:25;99110.15;;;20.53;40.34
62592;BME280;48659;41.622;2.276;2023-04-21T11:59:53;99110.84;;;19.56;41.86
62592;BME280;48659;41.622;2.276;2023-04-21T12:02:29;99108.01;;;20.34;40.46
62592;BME280;48659;41.622;2.276;2023-04-21T12:05:00;99109.35;;;21.47;38.10
62592;BME280;48659;41.622;2.276;2023-04-21T12:07:30;99106.71;;;21.88;37.59
62592;BME280;48659;41.622;2.276;2023-04-21T12:09:58;99112.71;;;21.21;38.05
62592;BME280;48659;41.622;2.276;2023-04-21T12:12:26;99114.55;;;21.06;38.73
62592;BME280;48659;41.622;2.276;2023-04-21T12:14:54;99115.37;;;19.08;42.48
62592;BME280;48659;41.622;2.276;2023-04-21T12:17:21;99116.53;;;20.55;40.03
62592;BME280;48659;41.622;2.276;2023-04-21T12:19:49;99111.04;;;20.93;40.16
62592;BME280;48659;41.622;2.276;2023-04-21T12:22:17;99116.33;;;20.25;41.02
62592;BME280;48659;41.622;2.276;2023-04-21T12:24:45;99113.24;;;20.67;40.19
62592;BME280;48659;41.622;2.276;2023-04-21T12:27:13;99111.04;;;20.96;39.76
62592;BME280;48659;41.622;2.276;2023-04-21T12:29:40;99118.16;;;20.54;39.93
62592;BME280;48659;41.622;2.276;2023-04-21T12:32:08;99105.55;;;21.01;39.26
62592;BME280;48659;41.622;2.276;2023-04-21T12:34:36;99118.27;;;20.18;41.49
62592;BME280;48659;41.622;2.276;2023-04-21T12:37:04;99113.49;;;20.84;40.19
62592;BME280;48659;41.622;2.276;2023-04-21T12:39:33;99116.64;;;21.16;39.04
62592;BME280;48659;41.622;2.276;2023-04-21T12:42:00;99113.49;;;21.64;38.50
62592;BME280;48659;41.622;2.276;2023-04-21T12:44:28;99105.74;;;21.27;38.19
62592;BME280;48659;41.622;2.276;2023-04-21T12:46:57;99109.33;;;19.35;42.11
62592;BME280;48659;41.622;2.276;2023-04-21T12:49:27;99106.16;;;20.49;39.96
62592;BME280;48659;41.622;2.276;2023-04-21T12:51:55;99097.19;;;20.28;40.02
62592;BME280;48659;41.622;2.276;2023-04-21T12:54:28;99101.79;;;21.69;38.32
62592;BME280;48659;41.622;2.276;2023-04-21T12:56:55;99106.56;;;21.42;38.70
62592;BME280;48659;41.622;2.276;2023-04-21T12:59:22;99100.89;;;19.79;40.15
62592;BME280;48659;41.622;2.276;2023-04-21T13:01:50;99099.39;;;21.15;37.83
62592;BME280;48659;41.622;2.276;2023-04-21T13:04:17;99101.25;;;21.59;37.63
62592;BME280;48659;41.622;2.276;2023-04-21T13:06:44;99097.68;;;21.12;37.92